sensor_id;sensor_type;location;lat;lon;timestamp;pressure;altitude;pressure_sealevel;temperature;humidity
59190;BME280;50749;51.636;4.948;2023-05-10T00:00:36;100925.75;;;18.91;61.62
59190;BME280;50749;51.636;4.948;2023-05-10T00:03:09;100925.75;;;18.91;61.43
59190;BME280;50749;51.636;4.948;2023-05-10T00:05:35;100920.56;;;18.90;61.59
59190;BME280;50749;51.636;4.948;2023-05-10T00:08:01;100924.13;;;18.90;61.71
59190;BME280;50749;51.636;4.948;2023-05-10T00:10:27;100921.72;;;18.89;61.50
59190;BME280;50749;51.636;4.948;2023-05-10T00:12:53;100922.53;;;18.89;61.67
59190;BME280;50749;51.636;4.948;2023-05-10T00:15:18;100915.41;;;18.88;61.24
59190;BME280;50749;51.636;4.948;2023-05-10T00:17:44;100917.72;;;18.86;61.22
59190;BME280;50749;51.636;4.948;2023-05-10T00:20:10;100914.97;;;18.86;61.30
59190;BME280;50749;51.636;4.948;2023-05-10T00:22:37;100912.97;;;18.87;61.38
59190;BME280;50749;51.636;4.948;2023-05-10T00:25:03;100910.22;;;18.87;61.33
59190;BME280;50749;51.636;4.948;2023-05-10T00:27:30;100919.31;;;18.87;61.47
59190;BME280;50749;51.636;4.948;2023-05-10T00:29:56;100917.72;;;18.86;61.54
59190;BME280;50749;51.636;4.948;2023-05-10T00:32:21;100916.91;;;18.86;61.27
59190;BME280;50749;51.636;4.948;2023-05-10T00:34:48;100912.19;;;18.86;61.15
59190;BME280;50749;51.636;4.948;2023-05-10T00:37:13;100916.13;;;18.85;61.55
59190;BME280;50749;51.636;4.948;2023-05-10T00:39:39;100919.69;;;18.86;61.01
59190;BME280;50749;51.636;4.948;2023-05-10T00:42:05;100912.19;;;18.86;61.25
59190;BME280;50749;51.636;4.948;2023-05-10T00:44:31;100914.97;;;18.86;61.01
59190;BME280;50749;51.636;4.948;2023-05-10T00:46:57;100914.13;;;18.86;61.48
59190;BME280;50749;51.636;4.948;2023-05-10T00:49:24;100912.19;;;18.86;61.15
59190;BME280;50749;51.636;4.948;2023-05-10T00:51:50;100907.44;;;18.87;60.98
59190;BME280;50749;51.636;4.948;2023-05-10T00:54:17;100901.13;;;18.86;60.86
59190;BME280;50749;51.636;4.948;2023-05-10T00:56:43;100901.91;;;18.87;60.83
59190;BME280;50749;51.636;4.948;2023-05-10T00:59:18;100898.34;;;18.86;61.19
59190;BME280;50749;51.636;4.948;2023-05-10T01:01:47;100907.81;;;18.85;61.27
59190;BME280;50749;51.636;4.948;2023-05-10T01:04:13;100900.28;;;18.86;60.85
59190;BME280;50749;51.636;4.948;2023-05-10T01:06:40;100907.81;;;18.85;61.38
59190;BME280;50749;51.636;4.948;2023-05-10T01:09:08;100905.03;;;18.85;61.10
59190;BME280;50749;51.636;4.948;2023-05-10T01:11:38;100904.25;;;18.85;61.13
59190;BME280;50749;51.636;4.948;2023-05-10T01:14:05;100908.97;;;18.84;61.19
59190;BME280;50749;51.636;4.948;2023-05-10T01:16:35;100902.63;;;18.84;60.82
59190;BME280;50749;51.636;4.948;2023-05-10T01:19:06;100906.19;;;18.84;61.06
59190;BME280;50749;51.636;4.948;2023-05-10T01:21:45;100906.56;;;18.83;61.40
59190;BME280;50749;51.636;4.948;2023-05-10T01:24:40;100912.09;;;18.83;60.87
59190;BME280;50749;51.636;4.948;2023-05-10T01:33:09;100908.41;;;18.79;61.21
59190;BME280;50749;51.636;4.948;2023-05-10T01:35:44;100917.53;;;18.79;61.31
59190;BME280;50749;51.636;4.948;2023-05-10T01:38:26;100914.75;;;18.79;61.32
59190;BME280;50749;51.636;4.948;2023-05-10T01:43:55;100913.53;;;18.77;61.15
59190;BME280;50749;51.636;4.948;2023-05-10T01:46:36;100914.31;;;18.77;61.41
59190;BME280;50749;51.636;4.948;2023-05-10T01:49:18;100918.25;;;18.76;61.50
59190;BME280;50749;51.636;4.948;2023-05-10T01:51:50;100915.47;;;18.76;61.48
59190;BME280;50749;51.636;4.948;2023-05-10T01:54:22;100916.66;;;18.75;61.06
59190;BME280;50749;51.636;4.948;2023-05-10T01:56:55;100923.00;;;18.75;61.38
59190;BME280;50749;51.636;4.948;2023-05-10T01:59:26;100917.81;;;18.74;61.34
59190;BME280;50749;51.636;4.948;2023-05-10T02:01:54;100918.16;;;18.72;61.46
59190;BME280;50749;51.636;4.948;2023-05-10T02:04:23;100925.69;;;18.72;61.13
59190;BME280;50749;51.636;4.948;2023-05-10T02:06:51;100918.53;;;18.71;61.25
59190;BME280;50749;51.636;4.948;2023-05-10T02:09:18;100915.75;;;18.71;61.16
59190;BME280;50749;51.636;4.948;2023-05-10T02:11:47;100920.50;;;18.70;61.42
59190;BME280;50749;51.636;4.948;2023-05-10T02:14:14;100918.91;;;18.69;61.43
59190;BME280;50749;51.636;4.948;2023-05-10T02:16:42;100918.91;;;18.69;61.26
59190;BME280;50749;51.636;4.948;2023-05-10T02:19:08;100919.72;;;18.70;61.28
59190;BME280;50749;51.636;4.948;2023-05-10T02:21:37;100923.63;;;18.69;61.47
59190;BME280;50749;51.636;4.948;2023-05-10T02:24:05;100925.97;;;18.67;61.17
59190;BME280;50749;51.636;4.948;2023-05-10T02:26:33;100932.28;;;18.67;61.48
59190;BME280;50749;51.636;4.948;2023-05-10T02:29:02;100934.63;;;18.65;61.43
59190;BME280;50749;51.636;4.948;2023-05-10T02:31:33;100940.97;;;18.66;61.48
59190;BME280;50749;51.636;4.948;2023-05-10T02:34:01;100936.59;;;18.65;61.19
59190;BME280;50749;51.636;4.948;2023-05-10T02:36:28;100942.16;;;18.65;61.62
59190;BME280;50749;51.636;4.948;2023-05-10T02:38:55;100937.75;;;18.64;61.26
59190;BME280;50749;51.636;4.948;2023-05-10T02:41:22;100943.28;;;18.64;61.65
59190;BME280;50749;51.636;4.948;2023-05-10T02:43:52;100942.50;;;18.63;61.39
59190;BME280;50749;51.636;4.948;2023-05-10T02:46:21;100942.50;;;18.63;61.56
59190;BME280;50749;51.636;4.948;2023-05-10T02:48:47;100947.25;;;18.63;61.79
59190;BME280;50749;51.636;4.948;2023-05-10T02:51:16;100943.66;;;18.62;61.25
59190;BME280;50749;51.636;4.948;2023-05-10T02:53:44;100953.94;;;18.62;61.39
59190;BME280;50749;51.636;4.948;2023-05-10T02:56:22;100946.34;;;18.59;61.42
59190;BME280;50749;51.636;4.948;2023-05-10T02:58:49;100954.28;;;18.60;61.49
59190;BME280;50749;51.636;4.948;2023-05-10T03:01:15;100953.03;;;18.57;61.77
59190;BME280;50749;51.636;4.948;2023-05-10T03:03:40;100962.16;;;18.58;61.54
59190;BME280;50749;51.636;4.948;2023-05-10T03:06:07;100964.09;;;18.57;61.76
59190;BME280;50749;51.636;4.948;2023-05-10T03:08:33;100955.81;;;18.57;61.48
59190;BME280;50749;51.636;4.948;2023-05-10T03:11:03;100949.81;;;18.55;61.41
59190;BME280;50749;51.636;4.948;2023-05-10T03:16:45;100951.44;;;18.56;61.45
59190;BME280;50749;51.636;4.948;2023-05-10T03:19:35;100951.44;;;18.56;61.43
59190;BME280;50749;51.636;4.948;2023-05-10T03:22:09;100955.38;;;18.55;61.73
59190;BME280;50749;51.636;4.948;2023-05-10T03:24:36;100956.19;;;18.56;61.50
59190;BME280;50749;51.636;4.948;2023-05-10T03:27:05;100958.97;;;18.56;61.43
59190;BME280;50749;51.636;4.948;2023-05-10T03:29:31;100961.25;;;18.54;61.13
59190;BME280;50749;51.636;4.948;2023-05-10T03:32:01;100967.63;;;18.54;61.63
59190;BME280;50749;51.636;4.948;2023-05-10T03:34:29;100957.69;;;18.53;61.31
59190;BME280;50749;51.636;4.948;2023-05-10T03:36:56;100959.75;;;18.56;61.25
59190;BME280;50749;51.636;4.948;2023-05-10T03:39:22;100967.25;;;18.56;61.27
59190;BME280;50749;51.636;4.948;2023-05-10T03:41:48;100968.78;;;18.53;61.15
59190;BME280;50749;51.636;4.948;2023-05-10T03:44:13;100974.31;;;18.53;60.94
59190;BME280;50749;51.636;4.948;2023-05-10T03:46:39;100977.88;;;18.54;60.99
59190;BME280;50749;51.636;4.948;2023-05-10T03:49:05;100979.84;;;18.53;61.33
59190;BME280;50749;51.636;4.948;2023-05-10T03:51:31;100976.63;;;18.51;61.19
59190;BME280;50749;51.636;4.948;2023-05-10T03:53:57;100978.59;;;18.51;61.40
59190;BME280;50749;51.636;4.948;2023-05-10T03:56:22;100978.97;;;18.49;61.00
59190;BME280;50749;51.636;4.948;2023-05-10T03:58:48;100981.72;;;18.49;61.05
59190;BME280;50749;51.636;4.948;2023-05-10T04:01:14;100971.81;;;18.48;61.08
59190;BME280;50749;51.636;4.948;2023-05-10T04:03:40;100974.56;;;18.48;60.96
59190;BME280;50749;51.636;4.948;2023-05-10T04:06:06;100980.13;;;18.48;60.98
59190;BME280;50749;51.636;4.948;2023-05-10T04:08:33;100984.03;;;18.47;60.89
59190;BME280;50749;51.636;4.948;2023-05-10T04:11:09;100990.41;;;18.48;60.86
59190;BME280;50749;51.636;4.948;2023-05-10T04:13:36;100991.53;;;18.47;61.20
59190;BME280;50749;51.636;4.948;2023-05-10T04:16:02;100984.38;;;18.46;60.61
59190;BME280;50749;51.636;4.948;2023-05-10T04:18:28;100989.56;;;18.47;60.84
59190;BME280;50749;51.636;4.948;2023-05-10T04:20:54;100985.22;;;18.46;60.93
59190;BME280;50749;51.636;4.948;2023-05-10T04:23:20;100981.63;;;18.46;61.17
59190;BME280;50749;51.636;4.948;2023-05-10T04:25:46;100984.38;;;18.46;60.93
59190;BME280;50749;51.636;4.948;2023-05-10T04:28:11;100980.81;;;18.45;61.01
59190;BME280;50749;51.636;4.948;2023-05-10T04:30:37;100983.59;;;18.45;60.91
59190;BME280;50749;51.636;4.948;2023-05-10T04:33:03;100984.78;;;18.44;60.95
59190;BME280;50749;51.636;4.948;2023-05-10T04:35:29;100985.56;;;18.45;60.73
59190;BME280;50749;51.636;4.948;2023-05-10T04:37:55;100991.91;;;18.45;61.00
59190;BME280;50749;51.636;4.948;2023-05-10T04:40:21;100985.22;;;18.46;61.07
59190;BME280;50749;51.636;4.948;2023-05-10T04:42:47;100993.53;;;18.46;61.14
59190;BME280;50749;51.636;4.948;2023-05-10T04:45:13;100993.53;;;18.46;60.57
59190;BME280;50749;51.636;4.948;2023-05-10T04:47:41;100987.97;;;18.46;60.84
59190;BME280;50749;51.636;4.948;2023-05-10T04:50:08;100989.94;;;18.46;60.89
59190;BME280;50749;51.636;4.948;2023-05-10T04:52:33;100986.38;;;18.45;61.02
59190;BME280;50749;51.636;4.948;2023-05-10T04:54:59;100992.69;;;18.46;61.06
59190;BME280;50749;51.636;4.948;2023-05-10T04:57:25;100991.91;;;18.45;60.51
59190;BME280;50749;51.636;4.948;2023-05-10T04:59:51;100993.88;;;18.45;61.06
59190;BME280;50749;51.636;4.948;2023-05-10T05:02:17;100994.66;;;18.45;61.01
59190;BME280;50749;51.636;4.948;2023-05-10T05:04:43;100993.06;;;18.44;60.86
59190;BME280;50749;51.636;4.948;2023-05-10T05:07:09;100997.44;;;18.45;61.02
59190;BME280;50749;51.636;4.948;2023-05-10T05:09:35;100998.16;;;18.42;61.15
59190;BME280;50749;51.636;4.948;2023-05-10T05:12:00;100999.75;;;18.43;60.72
59190;BME280;50749;51.636;4.948;2023-05-10T05:14:27;101005.31;;;18.43;60.95
59190;BME280;50749;51.636;4.948;2023-05-10T05:16:52;100997.44;;;18.45;60.80
59190;BME280;50749;51.636;4.948;2023-05-10T05:19:18;101008.16;;;18.47;60.98
59190;BME280;50749;51.636;4.948;2023-05-10T05:21:44;101004.59;;;18.46;60.86
59190;BME280;50749;51.636;4.948;2023-05-10T05:24:10;101006.19;;;18.47;61.07
59190;BME280;50749;51.636;4.948;2023-05-10T05:26:38;101015.66;;;18.46;60.75
59190;BME280;50749;51.636;4.948;2023-05-10T05:29:04;101015.66;;;18.46;61.09
59190;BME280;50749;51.636;4.948;2023-05-10T05:31:29;101019.59;;;18.45;61.23
59190;BME280;50749;51.636;4.948;2023-05-10T05:33:56;101019.59;;;18.45;60.83
59190;BME280;50749;51.636;4.948;2023-05-10T05:36:21;101017.16;;;18.44;61.30
59190;BME280;50749;51.636;4.948;2023-05-10T05:38:48;101026.28;;;18.44;60.97
59190;BME280;50749;51.636;4.948;2023-05-10T05:41:13;101029.06;;;18.44;61.21
59190;BME280;50749;51.636;4.948;2023-05-10T05:43:39;101024.75;;;18.47;61.46
59190;BME280;50749;51.636;4.948;2023-05-10T05:46:05;101027.88;;;18.45;61.42
59190;BME280;50749;51.636;4.948;2023-05-10T05:48:31;101028.69;;;18.46;61.74
59190;BME280;50749;51.636;4.948;2023-05-10T05:50:58;101028.31;;;18.47;62.24
59190;BME280;50749;51.636;4.948;2023-05-10T05:53:23;101039.41;;;18.47;61.94
59190;BME280;50749;51.636;4.948;2023-05-10T05:55:57;101041.03;;;18.48;61.88
59190;BME280;50749;51.636;4.948;2023-05-10T05:58:23;101036.28;;;18.49;61.99
59190;BME280;50749;51.636;4.948;2023-05-10T06:00:50;101044.66;;;18.52;61.91
59190;BME280;50749;51.636;4.948;2023-05-10T06:03:17;101046.72;;;18.55;61.50
59190;BME280;50749;51.636;4.948;2023-05-10T06:05:43;101057.09;;;18.59;61.50
59190;BME280;50749;51.636;4.948;2023-05-10T06:08:09;101045.56;;;18.56;61.64
59190;BME280;50749;51.636;4.948;2023-05-10T06:10:36;101052.97;;;18.52;61.91
59190;BME280;50749;51.636;4.948;2023-05-10T06:13:02;101057.72;;;18.52;61.90
59190;BME280;50749;51.636;4.948;2023-05-10T06:15:28;101057.34;;;18.53;62.25
59190;BME280;50749;51.636;4.948;2023-05-10T06:17:53;101056.22;;;18.54;61.98
59190;BME280;50749;51.636;4.948;2023-05-10T06:20:19;101076.75;;;18.53;62.08
59190;BME280;50749;51.636;4.948;2023-05-10T06:22:45;101060.03;;;18.50;62.07
59190;BME280;50749;51.636;4.948;2023-05-10T06:25:11;101076.28;;;18.51;62.18
59190;BME280;50749;51.636;4.948;2023-05-10T06:27:37;101069.16;;;18.50;61.72
59190;BME280;50749;51.636;4.948;2023-05-10T06:30:04;101073.09;;;18.49;62.24
59190;BME280;50749;51.636;4.948;2023-05-10T06:32:30;101069.16;;;18.50;61.68
59190;BME280;50749;51.636;4.948;2023-05-10T06:34:56;101066.38;;;18.50;61.98
59190;BME280;50749;51.636;4.948;2023-05-10T06:37:21;101071.13;;;18.50;62.10
59190;BME280;50749;51.636;4.948;2023-05-10T06:39:47;101074.69;;;18.50;61.98
59190;BME280;50749;51.636;4.948;2023-05-10T06:42:13;101073.09;;;18.49;61.95
59190;BME280;50749;51.636;4.948;2023-05-10T06:44:39;101073.44;;;18.48;62.66
59190;BME280;50749;51.636;4.948;2023-05-10T06:47:05;101075.84;;;18.49;62.39
59190;BME280;50749;51.636;4.948;2023-05-10T06:49:31;101081.47;;;18.53;62.13
59190;BME280;50749;51.636;4.948;2023-05-10T06:51:57;101085.66;;;18.47;61.92
59190;BME280;50749;51.636;4.948;2023-05-10T06:54:23;101082.91;;;18.47;61.85
59190;BME280;50749;51.636;4.948;2023-05-10T06:56:48;101080.47;;;18.45;61.14
59190;BME280;50749;51.636;4.948;2023-05-10T06:59:14;101082.44;;;18.45;61.29
59190;BME280;50749;51.636;4.948;2023-05-10T07:01:42;101086.81;;;18.46;61.38
59190;BME280;50749;51.636;4.948;2023-05-10T07:04:08;101082.81;;;18.43;61.83
59190;BME280;50749;51.636;4.948;2023-05-10T07:06:34;101085.31;;;18.48;61.75
59190;BME280;50749;51.636;4.948;2023-05-10T07:09:00;101088.53;;;18.50;61.82
59190;BME280;50749;51.636;4.948;2023-05-10T07:11:29;101088.59;;;18.54;61.91
59190;BME280;50749;51.636;4.948;2023-05-10T07:13:54;101089.97;;;18.60;62.12
59190;BME280;50749;51.636;4.948;2023-05-10T07:16:20;101098.34;;;18.64;62.66
59190;BME280;50749;51.636;4.948;2023-05-10T07:18:47;101097.66;;;18.67;61.94
59190;BME280;50749;51.636;4.948;2023-05-10T07:21:12;101100.84;;;18.69;61.76
59190;BME280;50749;51.636;4.948;2023-05-10T07:23:38;101111.06;;;18.65;61.67
59190;BME280;50749;51.636;4.948;2023-05-10T07:26:04;101109.44;;;18.64;61.71
59190;BME280;50749;51.636;4.948;2023-05-10T07:28:30;101104.25;;;18.62;62.03
59190;BME280;50749;51.636;4.948;2023-05-10T07:30:56;101105.16;;;18.66;62.23
59190;BME280;50749;51.636;4.948;2023-05-10T07:33:22;101113.56;;;18.70;61.84
59190;BME280;50749;51.636;4.948;2023-05-10T07:35:48;101107.56;;;18.68;62.06
59190;BME280;50749;51.636;4.948;2023-05-10T07:38:14;101110.44;;;18.71;61.68
59190;BME280;50749;51.636;4.948;2023-05-10T07:40:39;101109.59;;;18.71;61.29
59190;BME280;50749;51.636;4.948;2023-05-10T07:43:05;101116.41;;;18.73;61.46
59190;BME280;50749;51.636;4.948;2023-05-10T07:45:32;101110.53;;;18.75;61.42
59190;BME280;50749;51.636;4.948;2023-05-10T07:47:58;101115.63;;;18.73;61.22
59190;BME280;50749;51.636;4.948;2023-05-10T07:50:24;101113.28;;;18.75;61.57
59190;BME280;50749;51.636;4.948;2023-05-10T07:52:50;101116.50;;;18.77;61.48
59190;BME280;50749;51.636;4.948;2023-05-10T07:55:18;101117.41;;;18.81;61.31
59190;BME280;50749;51.636;4.948;2023-05-10T07:57:44;101117.88;;;18.83;61.35
59190;BME280;50749;51.636;4.948;2023-05-10T08:00:12;101113.13;;;18.84;61.03
59190;BME280;50749;51.636;4.948;2023-05-10T08:02:39;101117.16;;;18.86;61.69
59190;BME280;50749;51.636;4.948;2023-05-10T08:05:05;101121.16;;;18.89;61.57
59190;BME280;50749;51.636;4.948;2023-05-10T08:07:32;101119.19;;;18.89;60.99
59190;BME280;50749;51.636;4.948;2023-05-10T08:09:57;101120.38;;;18.88;61.35
59190;BME280;50749;51.636;4.948;2023-05-10T08:12:23;101127.50;;;18.89;61.43
59190;BME280;50749;51.636;4.948;2023-05-10T08:14:49;101132.34;;;18.92;61.34
59190;BME280;50749;51.636;4.948;2023-05-10T08:17:15;101132.34;;;18.92;61.55
59190;BME280;50749;51.636;4.948;2023-05-10T08:19:41;101127.25;;;18.94;61.77
59190;BME280;50749;51.636;4.948;2023-05-10T08:22:07;101139.94;;;18.96;61.64
59190;BME280;50749;51.636;4.948;2023-05-10T08:24:32;101137.16;;;18.96;61.31
59190;BME280;50749;51.636;4.948;2023-05-10T08:27:00;101135.53;;;18.94;61.31
59190;BME280;50749;51.636;4.948;2023-05-10T08:29:26;101151.09;;;18.99;61.35
59190;BME280;50749;51.636;4.948;2023-05-10T08:31:52;101144.84;;;19.02;61.12
59190;BME280;50749;51.636;4.948;2023-05-10T08:34:17;101151.53;;;19.01;61.05
59190;BME280;50749;51.636;4.948;2023-05-10T08:36:43;101148.06;;;19.04;60.92
59190;BME280;50749;51.636;4.948;2023-05-10T08:39:09;101154.78;;;19.03;61.00
59190;BME280;50749;51.636;4.948;2023-05-10T08:41:36;101143.69;;;19.03;61.22
59190;BME280;50749;51.636;4.948;2023-05-10T08:44:04;101150.41;;;19.02;61.18
59190;BME280;50749;51.636;4.948;2023-05-10T08:46:33;101163.88;;;19.04;60.79
59190;BME280;50749;51.636;4.948;2023-05-10T08:49:04;101158.78;;;19.06;60.48
59190;BME280;50749;51.636;4.948;2023-05-10T08:51:36;101158.00;;;19.05;60.77
59190;BME280;50749;51.636;4.948;2023-05-10T08:54:03;101151.66;;;19.05;61.06
59190;BME280;50749;51.636;4.948;2023-05-10T08:56:29;101158.34;;;19.04;60.91
59190;BME280;50749;51.636;4.948;2023-05-10T08:58:56;101164.69;;;19.04;60.71
59190;BME280;50749;51.636;4.948;2023-05-10T09:01:23;101156.38;;;19.04;60.87
59190;BME280;50749;51.636;4.948;2023-05-10T09:03:50;101162.63;;;19.01;60.87
59190;BME280;50749;51.636;4.948;2023-05-10T09:06:16;101168.16;;;19.01;60.81
59190;BME280;50749;51.636;4.948;2023-05-10T09:08:42;101167.72;;;18.99;60.97
59190;BME280;50749;51.636;4.948;2023-05-10T09:11:09;101181.94;;;18.98;60.57
59190;BME280;50749;51.636;4.948;2023-05-10T09:13:36;101175.25;;;18.99;60.46
59190;BME280;50749;51.636;4.948;2023-05-10T09:16:03;101180.00;;;18.98;60.76
59190;BME280;50749;51.636;4.948;2023-05-10T09:18:29;101180.78;;;18.99;60.84
59190;BME280;50749;51.636;4.948;2023-05-10T09:20:55;101179.16;;;18.98;61.00
59190;BME280;50749;51.636;4.948;2023-05-10T09:23:21;101181.22;;;19.01;60.53
59190;BME280;50749;51.636;4.948;2023-05-10T09:25:47;101186.84;;;19.04;60.49
59190;BME280;50749;51.636;4.948;2023-05-10T09:28:12;101191.25;;;19.05;60.37
59190;BME280;50749;51.636;4.948;2023-05-10T09:30:38;101187.69;;;19.05;60.49
59190;BME280;50749;51.636;4.948;2023-05-10T09:33:04;101188.38;;;19.02;60.49
59190;BME280;50749;51.636;4.948;2023-05-10T09:35:32;101194.63;;;18.99;60.90
59190;BME280;50749;51.636;4.948;2023-05-10T09:38:04;101200.28;;;19.02;60.51
59190;BME280;50749;51.636;4.948;2023-05-10T09:40:30;101205.44;;;19.04;60.54
59190;BME280;50749;51.636;4.948;2023-05-10T09:42:58;101201.53;;;19.05;60.46
59190;BME280;50749;51.636;4.948;2023-05-10T09:45:31;101210.28;;;19.07;60.67
59190;BME280;50749;51.636;4.948;2023-05-10T09:47:58;101201.53;;;19.05;60.64
59190;BME280;50749;51.636;4.948;2023-05-10T09:50:25;101203.94;;;19.06;60.99
59190;BME280;50749;51.636;4.948;2023-05-10T09:55:20;101205.53;;;19.07;60.55
59190;BME280;50749;51.636;4.948;2023-05-10T09:57:48;101210.28;;;19.07;60.28
59190;BME280;50749;51.636;4.948;2023-05-10T10:00:18;101202.41;;;19.09;60.51
59190;BME280;50749;51.636;4.948;2023-05-10T10:02:46;101204.38;;;19.08;60.52
59190;BME280;50749;51.636;4.948;2023-05-10T10:05:13;101205.97;;;19.09;60.48
59190;BME280;50749;51.636;4.948;2023-05-10T10:07:39;101211.16;;;19.11;60.30
59190;BME280;50749;51.636;4.948;2023-05-10T10:10:05;101207.97;;;19.09;60.21
59190;BME280;50749;51.636;4.948;2023-05-10T10:12:38;101211.53;;;19.09;60.26
59190;BME280;50749;51.636;4.948;2023-05-10T10:15:04;101211.16;;;19.11;60.50
59190;BME280;50749;51.636;4.948;2023-05-10T10:17:31;101214.38;;;19.13;60.09
59190;BME280;50749;51.636;4.948;2023-05-10T10:19:57;101212.78;;;19.12;60.14
59190;BME280;50749;51.636;4.948;2023-05-10T10:22:24;101215.22;;;19.14;60.00
59190;BME280;50749;51.636;4.948;2023-05-10T10:24:50;101208.47;;;19.15;60.35
59190;BME280;50749;51.636;4.948;2023-05-10T10:27:24;101216.09;;;19.18;60.02
59190;BME280;50749;51.636;4.948;2023-05-10T10:35:31;101218.06;;;19.17;59.76
59190;BME280;50749;51.636;4.948;2023-05-10T10:37:58;101219.69;;;19.18;59.73
59190;BME280;50749;51.636;4.948;2023-05-10T10:40:32;101218.50;;;19.19;59.19
59190;BME280;50749;51.636;4.948;2023-05-10T10:43:25;101218.50;;;19.19;59.76
59190;BME280;50749;51.636;4.948;2023-05-10T10:46:10;101213.31;;;19.18;59.64
59190;BME280;50749;51.636;4.948;2023-05-10T10:48:51;101220.84;;;19.17;59.66
59190;BME280;50749;51.636;4.948;2023-05-10T10:51:37;101222.06;;;19.20;59.57
59190;BME280;50749;51.636;4.948;2023-05-10T10:54:10;101217.34;;;19.20;59.81
59190;BME280;50749;51.636;4.948;2023-05-10T10:56:36;101210.63;;;19.21;60.02
59190;BME280;50749;51.636;4.948;2023-05-10T10:59:02;101226.81;;;19.19;59.67
59190;BME280;50749;51.636;4.948;2023-05-10T11:01:33;101216.16;;;19.21;59.86
59190;BME280;50749;51.636;4.948;2023-05-10T11:06:32;101213.88;;;19.23;59.52
59190;BME280;50749;51.636;4.948;2023-05-10T11:09:05;101218.59;;;19.23;58.72
59190;BME280;50749;51.636;4.948;2023-05-10T11:11:31;101214.75;;;19.27;59.58
59190;BME280;50749;51.636;4.948;2023-05-10T11:14:03;101215.91;;;19.26;59.80
59190;BME280;50749;51.636;4.948;2023-05-10T11:16:41;101217.09;;;19.25;59.38
59190;BME280;50749;51.636;4.948;2023-05-10T11:19:11;101225.84;;;19.27;58.68
59190;BME280;50749;51.636;4.948;2023-05-10T11:22:12;101219.50;;;19.27;58.90
59190;BME280;50749;51.636;4.948;2023-05-10T11:24:36;101221.19;;;19.31;58.13
59190;BME280;50749;51.636;4.948;2023-05-10T11:27:02;101225.94;;;19.31;57.75
59190;BME280;50749;51.636;4.948;2023-05-10T11:29:28;101229.50;;;19.31;57.59
59190;BME280;50749;51.636;4.948;2023-05-10T11:31:57;101233.44;;;19.30;58.17
59190;BME280;50749;51.636;4.948;2023-05-10T11:34:26;101229.97;;;19.34;58.54
59190;BME280;50749;51.636;4.948;2023-05-10T11:36:55;101230.41;;;19.36;58.93
59190;BME280;50749;51.636;4.948;2023-05-10T11:39:21;101238.72;;;19.36;58.59
59190;BME280;50749;51.636;4.948;2023-05-10T11:41:50;101244.25;;;19.36;58.72
59190;BME280;50749;51.636;4.948;2023-05-10T11:44:16;101241.13;;;19.37;59.11
59190;BME280;50749;51.636;4.948;2023-05-10T11:46:42;101241.13;;;19.37;58.67
59190;BME280;50749;51.636;4.948;2023-05-10T11:49:11;101244.97;;;19.33;58.39
59190;BME280;50749;51.636;4.948;2023-05-10T11:51:38;101242.19;;;19.33;58.40
59190;BME280;50749;51.636;4.948;2023-05-10T11:54:07;101235.94;;;19.36;58.77
59190;BME280;50749;51.636;4.948;2023-05-10T11:56:34;101244.00;;;19.41;58.89
59190;BME280;50749;51.636;4.948;2023-05-10T11:59:00;101238.88;;;19.43;58.89
59190;BME280;50749;51.636;4.948;2023-05-10T12:01:28;101234.97;;;19.44;59.41
59190;BME280;50749;51.636;4.948;2023-05-10T12:03:57;101236.13;;;19.43;59.57
59190;BME280;50749;51.636;4.948;2023-05-10T12:06:27;101239.31;;;19.45;59.49
59190;BME280;50749;51.636;4.948;2023-05-10T12:08:54;101232.63;;;19.46;59.15
59190;BME280;50749;51.636;4.948;2023-05-10T12:11:24;101243.34;;;19.47;59.21
59190;BME280;50749;51.636;4.948;2023-05-10T12:13:50;101248.03;;;19.43;59.46
59190;BME280;50749;51.636;4.948;2023-05-10T12:16:22;101252.31;;;19.41;59.22
59190;BME280;50749;51.636;4.948;2023-05-10T12:18:53;101251.50;;;19.40;59.00
59190;BME280;50749;51.636;4.948;2023-05-10T12:21:20;101258.56;;;19.38;59.19
59190;BME280;50749;51.636;4.948;2023-05-10T12:23:47;101260.81;;;19.32;58.88
59190;BME280;50749;51.636;4.948;2023-05-10T12:26:13;101255.63;;;19.30;58.83
59190;BME280;50749;51.636;4.948;2023-05-10T12:28:40;101263.03;;;19.26;59.51
59190;BME280;50749;51.636;4.948;2023-05-10T12:31:06;101267.69;;;19.22;59.13
59190;BME280;50749;51.636;4.948;2023-05-10T12:33:40;101271.97;;;19.20;59.44
59190;BME280;50749;51.636;4.948;2023-05-10T12:36:10;101273.13;;;19.19;59.21
59190;BME280;50749;51.636;4.948;2023-05-10T12:41:17;101265.63;;;19.19;58.72
59190;BME280;50749;51.636;4.948;2023-05-10T12:43:44;101264.47;;;19.20;59.19
59190;BME280;50749;51.636;4.948;2023-05-10T12:46:12;101275.47;;;19.17;57.66
59190;BME280;50749;51.636;4.948;2023-05-10T12:48:40;101268.31;;;19.16;58.24
59190;BME280;50749;51.636;4.948;2023-05-10T12:51:07;101274.63;;;19.16;58.66
59190;BME280;50749;51.636;4.948;2023-05-10T12:53:35;101275.47;;;19.17;58.45
59190;BME280;50749;51.636;4.948;2023-05-10T12:56:01;101279.03;;;19.17;58.35
59190;BME280;50749;51.636;4.948;2023-05-10T12:58:28;101277.97;;;19.22;57.74
59190;BME280;50749;51.636;4.948;2023-05-10T13:00:53;101278.78;;;19.22;57.66
59190;BME280;50749;51.636;4.948;2023-05-10T13:03:19;101280.84;;;19.25;57.50
59190;BME280;50749;51.636;4.948;2023-05-10T13:05:45;101280.03;;;19.25;57.59
59190;BME280;50749;51.636;4.948;2023-05-10T13:08:11;101282.81;;;19.25;57.50
59190;BME280;50749;51.636;4.948;2023-05-10T13:10:37;101285.19;;;19.26;57.58
59190;BME280;50749;51.636;4.948;2023-05-10T13:13:03;101288.34;;;19.25;57.75
59190;BME280;50749;51.636;4.948;2023-05-10T13:15:30;101276.44;;;19.24;57.26
59190;BME280;50749;51.636;4.948;2023-05-10T13:17:56;101283.16;;;19.23;58.02